Sandspit Airport
CYZP : now visible

Airfield :











YOU CAN JOIN US ON...

 
LOGIN :

Register | Disclaimer

   EN    FR    IT 

 









Legend :    VFR   Marginal VFR   IFR   Intensive IFR   Very Intensive IFR
Visi :
Ceiling :
>= 8 km
>= 3000ft
5 to 8 km
1000 to 3000 ft
1500m to 5 km
500 to 1000 ft
800 to 1500m
200 to 500 ft
< 800m
< 200 ft
Symbols :   Thunderstorms  Fog  Heavy snow  Heavy precipitations  Wind > 20 kt






- Airport Elevation : 21 ft
- IATA code : YZP


CYZP - Sandspit

CURRENT METAR :
  • 222313Z AUTO 08004KT 9SM SCT086 14/10 A3001 RMK SLP163

EXPIRED METARs :
  • 222300Z AUTO 09003KT 9SM -RA CLR 13/10 A3001 RMK SLP163
  • 222239Z AUTO 08004KT 9SM -RA CLR 13/10 A3001 RMK SLP163
  • 222200Z AUTO 07004KT 9SM SCT150 13/10 A3001 RMK SLP163
  • 222100Z AUTO 07007KT 9SM CLR 13/10 A3000 RMK SLP160

TAF TAF CYZP
Valid from the 22 at 19:00 until the 23 at 07:00 UTC


221838Z 2219/2307 01008KT P6SM SCT020 BKN110
TEMPO 2219/2222 BKN020
FM222200 01010KT P6SM SCT020 BKN060
TEMPO 2222/2307 P6SM -RA BKN020
BECMG 2300/2302 30010KT RMK FCST BASED ON AUTO OBS. NXT FCST BY 230100Z
CZVR FIR / North America



MET'MAP, your aeronautical weather chart ! - Copyright ORBIFLY December 2007 - Disclaimer

ORBIFLY MET'MAP TEAM :

Programming & Development : Alexandra Zaïnal
Concept & original design : Baudouin d'Aumeries
Assistance for programming : Marc-Olivier Méhu
Technical & hardware support : Manuel Goepfert

Contact : metmap@orbifly.com




SOURCES & CREDITS :

   NOAA       Earth
Advisory